sensor_id;sensor_type;location;lat;lon;timestamp;pressure;altitude;pressure_sealevel;temperature;humidity
62418;BME280;48456;54.242;10.280;2023-12-28T00:02:15;100866.88;;;5.31;100.00
62418;BME280;48456;54.242;10.280;2023-12-28T00:04:42;100880.06;;;5.36;100.00
62418;BME280;48456;54.242;10.280;2023-12-28T00:07:08;100881.81;;;5.37;100.00
62418;BME280;48456;54.242;10.280;2023-12-28T00:09:34;100879.19;;;5.35;100.00
62418;BME280;48456;54.242;10.280;2023-12-28T00:12:01;100873.81;;;5.29;100.00
62418;BME280;48456;54.242;10.280;2023-12-28T00:14:28;100884.41;;;5.33;100.00
62418;BME280;48456;54.242;10.280;2023-12-28T00:16:54;100876.53;;;5.33;100.00
62418;BME280;48456;54.242;10.280;2023-12-28T00:19:20;100869.56;;;5.36;100.00
62418;BME280;48456;54.242;10.280;2023-12-28T00:21:48;100855.59;;;5.37;100.00
62418;BME280;48456;54.242;10.280;2023-12-28T00:24:15;100863.56;;;5.41;100.00
62418;BME280;48456;54.242;10.280;2023-12-28T00:26:42;100852.25;;;5.45;100.00
62418;BME280;48456;54.242;10.280;2023-12-28T00:29:09;100851.38;;;5.45;100.00
62418;BME280;48456;54.242;10.280;2023-12-28T00:31:35;100838.34;;;5.50;100.00
62418;BME280;48456;54.242;10.280;2023-12-28T00:34:01;100829.56;;;5.49;100.00
62418;BME280;48456;54.242;10.280;2023-12-28T00:36:28;100827.84;;;5.50;100.00
62418;BME280;48456;54.242;10.280;2023-12-28T00:38:54;100817.34;;;5.50;100.00
62418;BME280;48456;54.242;10.280;2023-12-28T00:41:21;100817.44;;;5.54;100.00
62418;BME280;48456;54.242;10.280;2023-12-28T00:43:47;100820.06;;;5.56;100.00
62418;BME280;48456;54.242;10.280;2023-12-28T00:46:14;100829.69;;;5.55;100.00
62418;BME280;48456;54.242;10.280;2023-12-28T00:48:40;100840.25;;;5.58;100.00
62418;BME280;48456;54.242;10.280;2023-12-28T00:51:07;100842.91;;;5.62;100.00
62418;BME280;48456;54.242;10.280;2023-12-28T00:53:33;100838.63;;;5.68;100.00
62418;BME280;48456;54.242;10.280;2023-12-28T00:56:00;100837.69;;;5.63;100.00
62418;BME280;48456;54.242;10.280;2023-12-28T00:58:26;100852.78;;;5.75;100.00
62418;BME280;48456;54.242;10.280;2023-12-28T01:00:52;100862.47;;;5.81;100.00
62418;BME280;48456;54.242;10.280;2023-12-28T01:03:22;100861.66;;;5.85;100.00
62418;BME280;48456;54.242;10.280;2023-12-28T01:05:49;100863.50;;;5.91;100.00
62418;BME280;48456;54.242;10.280;2023-12-28T01:08:17;100879.59;;;6.09;100.00
62418;BME280;48456;54.242;10.280;2023-12-28T01:10:44;100861.22;;;6.09;100.00
62418;BME280;48456;54.242;10.280;2023-12-28T01:13:10;100861.22;;;6.09;100.00
62418;BME280;48456;54.242;10.280;2023-12-28T01:15:37;100863.03;;;6.14;100.00
62418;BME280;48456;54.242;10.280;2023-12-28T01:18:03;100861.31;;;6.17;100.00
62418;BME280;48456;54.242;10.280;2023-12-28T01:20:30;100846.44;;;6.18;100.00
62418;BME280;48456;54.242;10.280;2023-12-28T01:22:57;100851.69;;;6.19;100.00
62418;BME280;48456;54.242;10.280;2023-12-28T01:25:23;99965.28;;;12.72;100.00
62418;BME280;48456;54.242;10.280;2023-12-28T01:27:50;100024.34;;;18.71;100.00
62418;BME280;48456;54.242;10.280;2023-12-28T01:30:16;100042.53;;;20.49;100.00
62418;BME280;48456;54.242;10.280;2023-12-28T01:32:43;100335.16;;;19.46;100.00
62418;BME280;48456;54.242;10.280;2023-12-28T01:35:09;100430.25;;;20.50;100.00
62418;BME280;48456;54.242;10.280;2023-12-28T01:37:36;100257.16;;;20.38;100.00
62418;BME280;48456;54.242;10.280;2023-12-28T01:40:02;100390.38;;;20.07;100.00
62418;BME280;48456;54.242;10.280;2023-12-28T01:42:29;100384.28;;;20.38;100.00
62418;BME280;48456;54.242;10.280;2023-12-28T01:44:59;100366.78;;;20.99;100.00
62418;BME280;48456;54.242;10.280;2023-12-28T01:47:25;100407.41;;;21.42;100.00
62418;BME280;48456;54.242;10.280;2023-12-28T01:49:52;100351.63;;;20.98;100.00
62418;BME280;48456;54.242;10.280;2023-12-28T01:52:20;100378.59;;;20.09;100.00
62418;BME280;48456;54.242;10.280;2023-12-28T01:54:46;100412.50;;;21.15;100.00
62418;BME280;48456;54.242;10.280;2023-12-28T01:57:14;100413.06;;;21.54;100.00
62418;BME280;48456;54.242;10.280;2023-12-28T01:59:41;100668.00;;;21.15;100.00
62418;BME280;48456;54.242;10.280;2023-12-28T02:02:07;100736.75;;;21.21;100.00
62418;BME280;48456;54.242;10.280;2023-12-28T02:04:34;100640.47;;;22.45;100.00
62418;BME280;48456;54.242;10.280;2023-12-28T02:07:01;100127.09;;;23.48;100.00
62418;BME280;48456;54.242;10.280;2023-12-28T02:09:28;100106.25;;;21.25;100.00
62418;BME280;48456;54.242;10.280;2023-12-28T02:11:55;100104.16;;;20.20;100.00
62418;BME280;48456;54.242;10.280;2023-12-28T02:14:21;100103.97;;;19.40;100.00
62418;BME280;48456;54.242;10.280;2023-12-28T02:16:56;100092.84;;;19.30;100.00
62418;BME280;48456;54.242;10.280;2023-12-28T02:21:53;100061.03;;;18.14;100.00
62418;BME280;48456;54.242;10.280;2023-12-28T02:24:20;100034.41;;;17.33;100.00
62418;BME280;48456;54.242;10.280;2023-12-28T02:26:47;100187.94;;;17.05;100.00
62418;BME280;48456;54.242;10.280;2023-12-28T02:29:13;100193.22;;;17.06;100.00
62418;BME280;48456;54.242;10.280;2023-12-28T02:31:51;100191.06;;;16.92;100.00
62418;BME280;48456;54.242;10.280;2023-12-28T02:34:22;100209.03;;;17.33;100.00
62418;BME280;48456;54.242;10.280;2023-12-28T02:36:52;100248.34;;;18.74;100.00
62418;BME280;48456;54.242;10.280;2023-12-28T02:39:21;99909.44;;;17.94;100.00
62418;BME280;48456;54.242;10.280;2023-12-28T02:41:48;99918.81;;;18.57;100.00
62418;BME280;48456;54.242;10.280;2023-12-28T02:44:15;100237.47;;;17.98;100.00
62418;BME280;48456;54.242;10.280;2023-12-28T02:46:41;100266.84;;;18.98;100.00
62418;BME280;48456;54.242;10.280;2023-12-28T02:49:08;100090.31;;;18.17;100.00
62418;BME280;48456;54.242;10.280;2023-12-28T02:51:37;100294.94;;;18.31;100.00
62418;BME280;48456;54.242;10.280;2023-12-28T02:54:03;100252.94;;;18.31;100.00
62418;BME280;48456;54.242;10.280;2023-12-28T02:56:30;100205.53;;;18.14;100.00
62418;BME280;48456;54.242;10.280;2023-12-28T02:58:58;100127.16;;;19.05;100.00
62418;BME280;48456;54.242;10.280;2023-12-28T03:01:24;100002.06;;;13.18;100.00
62418;BME280;48456;54.242;10.280;2023-12-28T03:03:51;100301.38;;;7.82;100.00
62418;BME280;48456;54.242;10.280;2023-12-28T03:06:17;100298.72;;;7.12;100.00
62418;BME280;48456;54.242;10.280;2023-12-28T03:08:44;100349.53;;;7.00;100.00
62418;BME280;48456;54.242;10.280;2023-12-28T03:11:10;100336.47;;;7.45;100.00
62418;BME280;48456;54.242;10.280;2023-12-28T03:13:37;100333.84;;;8.01;100.00
62418;BME280;48456;54.242;10.280;2023-12-28T03:16:03;100326.84;;;7.91;100.00
62418;BME280;48456;54.242;10.280;2023-12-28T03:18:30;100311.03;;;7.80;100.00
62418;BME280;48456;54.242;10.280;2023-12-28T03:20:56;100328.56;;;7.53;100.00
62418;BME280;48456;54.242;10.280;2023-12-28T03:23:23;100324.19;;;7.33;100.00
62418;BME280;48456;54.242;10.280;2023-12-28T03:25:49;100349.59;;;7.28;100.00
62418;BME280;48456;54.242;10.280;2023-12-28T03:28:15;100311.88;;;7.21;100.00
62418;BME280;48456;54.242;10.280;2023-12-28T03:30:42;100304.88;;;7.20;100.00
62418;BME280;48456;54.242;10.280;2023-12-28T03:33:09;100306.63;;;7.07;100.00
62418;BME280;48456;54.242;10.280;2023-12-28T03:35:36;100341.59;;;6.92;100.00
62418;BME280;48456;54.242;10.280;2023-12-28T03:38:02;100339.00;;;6.91;100.00
62418;BME280;48456;54.242;10.280;2023-12-28T03:40:28;100305.66;;;6.83;100.00
62418;BME280;48456;54.242;10.280;2023-12-28T03:42:55;100310.03;;;6.78;100.00
62418;BME280;48456;54.242;10.280;2023-12-28T03:45:21;100320.56;;;6.80;100.00
62418;BME280;48456;54.242;10.280;2023-12-28T03:47:48;100350.31;;;6.77;100.00
62418;BME280;48456;54.242;10.280;2023-12-28T03:50:14;100331.88;;;6.68;100.00
62418;BME280;48456;54.242;10.280;2023-12-28T03:52:41;100321.41;;;6.77;100.00
62418;BME280;48456;54.242;10.280;2023-12-28T03:55:08;100326.69;;;6.85;100.00
62418;BME280;48456;54.242;10.280;2023-12-28T03:57:34;100331.09;;;6.87;100.00
62418;BME280;48456;54.242;10.280;2023-12-28T04:00:01;100325.84;;;6.91;100.00
62418;BME280;48456;54.242;10.280;2023-12-28T04:02:27;100345.13;;;6.94;100.00
62418;BME280;48456;54.242;10.280;2023-12-28T04:04:57;100318.81;;;6.91;100.00
62418;BME280;48456;54.242;10.280;2023-12-28T04:07:25;100346.88;;;6.89;100.00
62418;BME280;48456;54.242;10.280;2023-12-28T04:09:51;100318.81;;;6.85;100.00
62418;BME280;48456;54.242;10.280;2023-12-28T04:12:17;100334.56;;;6.80;100.00
62418;BME280;48456;54.242;10.280;2023-12-28T04:14:44;100324.06;;;6.75;100.00
62418;BME280;48456;54.242;10.280;2023-12-28T04:17:10;100342.41;;;6.71;100.00
62418;BME280;48456;54.242;10.280;2023-12-28T04:19:37;100337.16;;;6.65;100.00
62418;BME280;48456;54.242;10.280;2023-12-28T04:22:03;100329.22;;;6.60;100.00
62418;BME280;48456;54.242;10.280;2023-12-28T04:24:29;100338.88;;;6.56;100.00
62418;BME280;48456;54.242;10.280;2023-12-28T04:26:56;100336.22;;;6.55;100.00
62418;BME280;48456;54.242;10.280;2023-12-28T04:29:22;100318.69;;;6.50;100.00
62418;BME280;48456;54.242;10.280;2023-12-28T04:31:49;100325.69;;;6.52;100.00
62418;BME280;48456;54.242;10.280;2023-12-28T04:34:15;100322.16;;;6.51;100.00
62418;BME280;48456;54.242;10.280;2023-12-28T04:36:42;100318.69;;;6.52;100.00
62418;BME280;48456;54.242;10.280;2023-12-28T04:39:13;100323.03;;;6.44;100.00
62418;BME280;48456;54.242;10.280;2023-12-28T04:41:39;100317.75;;;6.45;100.00
62418;BME280;48456;54.242;10.280;2023-12-28T04:44:06;100320.34;;;6.31;100.00
62418;BME280;48456;54.242;10.280;2023-12-28T04:46:32;100316.81;;;6.31;100.00
62418;BME280;48456;54.242;10.280;2023-12-28T04:49:01;100320.34;;;6.30;100.00
62418;BME280;48456;54.242;10.280;2023-12-28T04:51:28;100305.41;;;6.26;100.00
62418;BME280;48456;54.242;10.280;2023-12-28T04:53:54;100310.69;;;6.26;100.00
62418;BME280;48456;54.242;10.280;2023-12-28T04:56:21;100314.16;;;6.26;100.00
62418;BME280;48456;54.242;10.280;2023-12-28T04:58:47;100322.91;;;6.25;100.00
62418;BME280;48456;54.242;10.280;2023-12-28T05:01:14;100308.03;;;6.22;100.00
62418;BME280;48456;54.242;10.280;2023-12-28T05:03:41;100326.41;;;6.22;100.00
62418;BME280;48456;54.242;10.280;2023-12-28T05:06:07;100322.88;;;6.22;100.00
62418;BME280;48456;54.242;10.280;2023-12-28T05:08:34;100336.97;;;6.27;100.00
62418;BME280;48456;54.242;10.280;2023-12-28T05:11:00;100348.34;;;6.31;100.00
62418;BME280;48456;54.242;10.280;2023-12-28T05:13:27;100337.88;;;6.39;100.00
62418;BME280;48456;54.242;10.280;2023-12-28T05:15:53;100128.56;;;6.36;100.00
62418;BME280;48456;54.242;10.280;2023-12-28T05:18:20;100138.22;;;6.39;100.00
62418;BME280;48456;54.242;10.280;2023-12-28T05:20:47;100132.09;;;6.44;100.00
62418;BME280;48456;54.242;10.280;2023-12-28T05:23:13;100129.47;;;6.44;100.00
62418;BME280;48456;54.242;10.280;2023-12-28T05:25:40;100125.97;;;6.44;100.00
62418;BME280;48456;54.242;10.280;2023-12-28T05:28:06;100119.81;;;6.39;100.00
62418;BME280;48456;54.242;10.280;2023-12-28T05:30:32;100350.16;;;6.38;100.00
62418;BME280;48456;54.242;10.280;2023-12-28T05:32:59;100347.53;;;6.41;100.00
62418;BME280;48456;54.242;10.280;2023-12-28T05:35:26;100190.75;;;6.32;100.00
62418;BME280;48456;54.242;10.280;2023-12-28T05:37:52;100113.72;;;6.49;100.00
62418;BME280;48456;54.242;10.280;2023-12-28T05:40:18;100116.34;;;6.55;100.00
62418;BME280;48456;54.242;10.280;2023-12-28T05:42:45;100111.09;;;6.50;100.00
62418;BME280;48456;54.242;10.280;2023-12-28T05:45:11;100122.47;;;6.54;100.00
62418;BME280;48456;54.242;10.280;2023-12-28T05:47:38;100115.47;;;6.58;100.00
62418;BME280;48456;54.242;10.280;2023-12-28T05:50:04;100127.75;;;6.67;100.00
62418;BME280;48456;54.242;10.280;2023-12-28T05:52:32;100115.47;;;6.70;100.00
62418;BME280;48456;54.242;10.280;2023-12-28T05:54:58;100120.75;;;6.78;100.00
62418;BME280;48456;54.242;10.280;2023-12-28T05:57:25;100117.25;;;6.82;100.00
62418;BME280;48456;54.242;10.280;2023-12-28T05:59:56;100114.63;;;6.92;100.00
62418;BME280;48456;54.242;10.280;2023-12-28T06:02:23;100111.09;;;6.93;100.00
62418;BME280;48456;54.242;10.280;2023-12-28T06:04:49;100112.84;;;6.92;100.00
62418;BME280;48456;54.242;10.280;2023-12-28T06:07:16;100116.38;;;6.86;100.00
62418;BME280;48456;54.242;10.280;2023-12-28T06:09:42;100101.47;;;6.84;100.00
62418;BME280;48456;54.242;10.280;2023-12-28T06:12:09;100100.59;;;6.79;100.00
62418;BME280;48456;54.242;10.280;2023-12-28T06:14:36;100113.72;;;6.79;100.00
62418;BME280;48456;54.242;10.280;2023-12-28T06:17:02;100104.09;;;6.82;100.00
62418;BME280;48456;54.242;10.280;2023-12-28T06:19:29;100094.47;;;6.86;100.00
62418;BME280;48456;54.242;10.280;2023-12-28T06:21:55;100096.22;;;6.90;100.00
62418;BME280;48456;54.242;10.280;2023-12-28T06:24:22;100097.09;;;6.87;100.00
62418;BME280;48456;54.242;10.280;2023-12-28T06:26:48;100091.84;;;6.91;100.00
62418;BME280;48456;54.242;10.280;2023-12-28T06:29:14;100094.44;;;6.95;100.00
62418;BME280;48456;54.242;10.280;2023-12-28T06:31:41;100098.81;;;6.98;100.00
62418;BME280;48456;54.242;10.280;2023-12-28T06:34:08;100094.47;;;7.01;100.00
62418;BME280;48456;54.242;10.280;2023-12-28T06:36:35;100095.31;;;7.05;100.00
62418;BME280;48456;54.242;10.280;2023-12-28T06:39:02;100084.81;;;7.08;100.00
62418;BME280;48456;54.242;10.280;2023-12-28T06:41:28;100082.19;;;7.08;100.00
62418;BME280;48456;54.242;10.280;2023-12-28T06:43:55;100083.91;;;7.11;100.00
62418;BME280;48456;54.242;10.280;2023-12-28T06:46:21;100088.28;;;7.23;100.00
62418;BME280;48456;54.242;10.280;2023-12-28T06:48:48;100086.53;;;7.15;100.00
62418;BME280;48456;54.242;10.280;2023-12-28T06:51:18;100065.47;;;7.15;100.00
62418;BME280;48456;54.242;10.280;2023-12-28T06:53:46;100068.13;;;7.19;100.00
62418;BME280;48456;54.242;10.280;2023-12-28T06:56:12;100064.59;;;7.27;100.00
62418;BME280;48456;54.242;10.280;2023-12-28T06:58:39;100064.59;;;7.27;100.00
62418;BME280;48456;54.242;10.280;2023-12-28T07:01:05;100058.41;;;7.35;100.00
62418;BME280;48456;54.242;10.280;2023-12-28T07:03:32;100046.16;;;7.32;100.00
62418;BME280;48456;54.242;10.280;2023-12-28T07:05:59;100047.03;;;7.30;100.00
62418;BME280;48456;54.242;10.280;2023-12-28T07:08:26;100032.16;;;7.24;100.00
62418;BME280;48456;54.242;10.280;2023-12-28T07:10:52;100035.66;;;7.29;100.00
62418;BME280;48456;54.242;10.280;2023-12-28T07:13:19;100040.03;;;7.28;100.00
62418;BME280;48456;54.242;10.280;2023-12-28T07:15:45;100024.25;;;7.30;100.00
62418;BME280;48456;54.242;10.280;2023-12-28T07:18:12;100048.81;;;7.20;100.00
62418;BME280;48456;54.242;10.280;2023-12-28T07:20:41;100047.97;;;7.21;100.00
62418;BME280;48456;54.242;10.280;2023-12-28T07:23:08;100048.81;;;7.24;100.00
62418;BME280;48456;54.242;10.280;2023-12-28T07:25:35;100052.34;;;7.26;100.00
62418;BME280;48456;54.242;10.280;2023-12-28T07:28:02;100051.47;;;7.17;100.00
62418;BME280;48456;54.242;10.280;2023-12-28T07:30:29;100048.81;;;7.27;100.00
62418;BME280;48456;54.242;10.280;2023-12-28T07:32:55;100044.44;;;7.26;100.00
62418;BME280;48456;54.242;10.280;2023-12-28T07:35:22;100039.19;;;7.22;100.00
62418;BME280;48456;54.242;10.280;2023-12-28T07:37:48;100056.72;;;7.27;100.00
62418;BME280;48456;54.242;10.280;2023-12-28T07:40:16;100038.25;;;7.32;100.00
62418;BME280;48456;54.242;10.280;2023-12-28T07:42:42;100036.50;;;7.31;100.00
62418;BME280;48456;54.242;10.280;2023-12-28T07:45:08;100036.50;;;7.31;100.00
62418;BME280;48456;54.242;10.280;2023-12-28T07:47:35;100014.56;;;7.35;100.00
62418;BME280;48456;54.242;10.280;2023-12-28T07:50:02;100012.84;;;7.37;100.00
62418;BME280;48456;54.242;10.280;2023-12-28T07:52:28;100019.00;;;7.30;100.00
62418;BME280;48456;54.242;10.280;2023-12-28T07:54:55;100028.63;;;7.33;100.00
62418;BME280;48456;54.242;10.280;2023-12-28T07:57:21;100031.22;;;7.44;100.00
62418;BME280;48456;54.242;10.280;2023-12-28T07:59:48;100016.25;;;7.55;100.00
62418;BME280;48456;54.242;10.280;2023-12-28T08:02:14;100022.41;;;7.51;100.00
62418;BME280;48456;54.242;10.280;2023-12-28T08:04:43;100009.28;;;7.46;100.00
62418;BME280;48456;54.242;10.280;2023-12-28T08:07:09;99996.94;;;7.56;100.00
62418;BME280;48456;54.242;10.280;2023-12-28T08:09:36;99996.09;;;7.54;100.00
62418;BME280;48456;54.242;10.280;2023-12-28T08:12:03;99975.91;;;7.51;100.00
62418;BME280;48456;54.242;10.280;2023-12-28T08:14:29;99986.41;;;7.56;100.00
62418;BME280;48456;54.242;10.280;2023-12-28T08:16:56;99983.84;;;7.50;100.00
62418;BME280;48456;54.242;10.280;2023-12-28T08:19:22;99944.28;;;7.61;100.00
62418;BME280;48456;54.242;10.280;2023-12-28T08:21:48;99933.78;;;7.61;100.00
62418;BME280;48456;54.242;10.280;2023-12-28T08:24:15;99965.31;;;7.62;100.00
62418;BME280;48456;54.242;10.280;2023-12-28T08:26:42;99967.97;;;7.61;100.00
62418;BME280;48456;54.242;10.280;2023-12-28T08:29:09;99945.22;;;7.52;100.00
62418;BME280;48456;54.242;10.280;2023-12-28T08:31:35;99941.66;;;7.61;100.00
62418;BME280;48456;54.242;10.280;2023-12-28T08:34:02;99939.94;;;7.53;100.00
62418;BME280;48456;54.242;10.280;2023-12-28T08:36:29;99930.31;;;7.45;100.00
62418;BME280;48456;54.242;10.280;2023-12-28T08:38:55;99924.09;;;7.61;100.00
62418;BME280;48456;54.242;10.280;2023-12-28T08:41:22;99923.25;;;7.59;100.00
62418;BME280;48456;54.242;10.280;2023-12-28T08:43:53;99926.72;;;7.63;100.00
62418;BME280;48456;54.242;10.280;2023-12-28T08:46:23;99940.78;;;7.57;100.00
62418;BME280;48456;54.242;10.280;2023-12-28T08:48:51;99944.25;;;7.65;100.00
62418;BME280;48456;54.242;10.280;2023-12-28T08:51:17;99937.25;;;7.64;100.00
62418;BME280;48456;54.242;10.280;2023-12-28T08:53:44;99991.63;;;7.72;100.00
62418;BME280;48456;54.242;10.280;2023-12-28T08:58:40;100022.31;;;7.74;100.00
62418;BME280;48456;54.242;10.280;2023-12-28T09:01:06;100031.09;;;7.69;100.00
62418;BME280;48456;54.242;10.280;2023-12-28T09:03:33;100039.91;;;7.67;100.00
62418;BME280;48456;54.242;10.280;2023-12-28T09:05:59;100035.47;;;7.76;100.00
62418;BME280;48456;54.242;10.280;2023-12-28T09:08:26;100045.13;;;7.74;100.00
62418;BME280;48456;54.242;10.280;2023-12-28T09:10:52;100032.84;;;7.70;100.00
62418;BME280;48456;54.242;10.280;2023-12-28T09:13:19;100007.44;;;7.64;100.00
62418;BME280;48456;54.242;10.280;2023-12-28T09:15:46;100029.28;;;7.82;100.00
62418;BME280;48456;54.242;10.280;2023-12-28T09:18:12;100031.13;;;7.64;100.00
62418;BME280;48456;54.242;10.280;2023-12-28T09:20:39;100044.16;;;7.89;100.00
62418;BME280;48456;54.242;10.280;2023-12-28T09:23:06;100015.25;;;7.75;100.00
62418;BME280;48456;54.242;10.280;2023-12-28T09:25:33;100047.69;;;7.88;100.00
62418;BME280;48456;54.242;10.280;2023-12-28T09:28:00;100044.16;;;7.90;100.00
62418;BME280;48456;54.242;10.280;2023-12-28T09:30:27;100054.56;;;8.09;100.00
62418;BME280;48456;54.242;10.280;2023-12-28T09:32:53;100078.28;;;8.11;100.00
62418;BME280;48456;54.242;10.280;2023-12-28T09:35:20;100093.22;;;8.12;100.00
62418;BME280;48456;54.242;10.280;2023-12-28T09:37:46;100142.19;;;8.50;100.00
62418;BME280;48456;54.242;10.280;2023-12-28T09:40:13;100156.94;;;8.79;100.00
62418;BME280;48456;54.242;10.280;2023-12-28T09:42:43;100134.84;;;8.94;100.00
62418;BME280;48456;54.242;10.280;2023-12-28T09:45:14;100145.22;;;9.16;100.00
62418;BME280;48456;54.242;10.280;2023-12-28T09:47:41;100153.06;;;9.24;100.00
62418;BME280;48456;54.242;10.280;2023-12-28T09:50:10;100151.22;;;9.34;100.00
62418;BME280;48456;54.242;10.280;2023-12-28T09:52:39;100160.78;;;9.44;100.00
62418;BME280;48456;54.242;10.280;2023-12-28T09:55:05;100161.78;;;9.35;100.00
62418;BME280;48456;54.242;10.280;2023-12-28T09:57:32;100157.34;;;9.36;100.00
62418;BME280;48456;54.242;10.280;2023-12-28T09:59:58;100148.50;;;9.42;100.00
62418;BME280;48456;54.242;10.280;2023-12-28T10:02:25;100145.81;;;9.48;100.00
62418;BME280;48456;54.242;10.280;2023-12-28T10:04:52;100156.31;;;9.51;100.00
62418;BME280;48456;54.242;10.280;2023-12-28T10:07:18;100142.28;;;9.49;100.00
62418;BME280;48456;54.242;10.280;2023-12-28T10:09:45;100145.72;;;9.54;100.00
62418;BME280;48456;54.242;10.280;2023-12-28T10:12:11;100159.72;;;9.64;100.00
62418;BME280;48456;54.242;10.280;2023-12-28T10:14:38;100147.22;;;9.79;100.00
62418;BME280;48456;54.242;10.280;2023-12-28T10:17:04;100150.75;;;9.78;100.00
62418;BME280;48456;54.242;10.280;2023-12-28T10:19:30;100164.72;;;9.89;100.00
62418;BME280;48456;54.242;10.280;2023-12-28T10:21:57;100147.97;;;9.92;100.00
62418;BME280;48456;54.242;10.280;2023-12-28T10:24:26;100157.63;;;9.91;100.00
62418;BME280;48456;54.242;10.280;2023-12-28T10:26:52;100161.06;;;10.01;100.00
62418;BME280;48456;54.242;10.280;2023-12-28T10:29:19;100159.22;;;10.08;100.00
62418;BME280;48456;54.242;10.280;2023-12-28T10:31:46;100153.00;;;10.12;100.00
62418;BME280;48456;54.242;10.280;2023-12-28T10:34:18;100145.06;;;10.12;100.00
62418;BME280;48456;54.242;10.280;2023-12-28T10:36:45;100154.69;;;10.16;100.00
62418;BME280;48456;54.242;10.280;2023-12-28T10:39:12;100142.38;;;10.15;100.00
62418;BME280;48456;54.242;10.280;2023-12-28T10:41:41;100159.16;;;10.12;100.00
62418;BME280;48456;54.242;10.280;2023-12-28T10:44:08;100146.91;;;10.05;100.00
62418;BME280;48456;54.242;10.280;2023-12-28T10:46:40;100163.94;;;9.81;100.00
62418;BME280;48456;54.242;10.280;2023-12-28T10:49:12;100166.88;;;9.49;100.00
62418;BME280;48456;54.242;10.280;2023-12-28T10:51:42;100160.09;;;9.27;100.00
62418;BME280;48456;54.242;10.280;2023-12-28T10:56:40;100164.50;;;9.25;100.00
62418;BME280;48456;54.242;10.280;2023-12-28T11:01:40;100165.34;;;9.27;100.00
62418;BME280;48456;54.242;10.280;2023-12-28T11:04:19;100167.94;;;9.33;100.00
62418;BME280;48456;54.242;10.280;2023-12-28T11:06:47;100178.53;;;9.28;100.00
62418;BME280;48456;54.242;10.280;2023-12-28T11:09:14;100165.47;;;9.13;100.00
62418;BME280;48456;54.242;10.280;2023-12-28T11:11:44;100185.84;;;8.93;100.00
62418;BME280;48456;54.242;10.280;2023-12-28T11:14:12;100186.78;;;8.88;100.00
62418;BME280;48456;54.242;10.280;2023-12-28T11:16:39;100154.50;;;8.45;100.00
62418;BME280;48456;54.242;10.280;2023-12-28T11:19:06;100114.25;;;8.19;100.00
62418;BME280;48456;54.242;10.280;2023-12-28T11:21:33;100106.34;;;8.16;100.00
62418;BME280;48456;54.242;10.280;2023-12-28T11:24:00;100078.25;;;8.17;100.00
62418;BME280;48456;54.242;10.280;2023-12-28T11:26:27;100072.13;;;8.13;100.00
62418;BME280;48456;54.242;10.280;2023-12-28T11:29:04;100068.63;;;8.14;100.00
62418;BME280;48456;54.242;10.280;2023-12-28T11:31:33;100171.38;;;8.05;100.00
62418;BME280;48456;54.242;10.280;2023-12-28T11:34:04;100388.28;;;8.05;100.00
62418;BME280;48456;54.242;10.280;2023-12-28T11:36:34;100495.38;;;8.05;100.00
62418;BME280;48456;54.242;10.280;2023-12-28T11:39:05;100499.75;;;7.89;100.00
62418;BME280;48456;54.242;10.280;2023-12-28T11:41:33;100591.13;;;8.07;100.00
62418;BME280;48456;54.242;10.280;2023-12-28T11:44:05;100605.19;;;8.14;100.00
62418;BME280;48456;54.242;10.280;2023-12-28T11:46:32;100592.91;;;8.24;100.00
62418;BME280;48456;54.242;10.280;2023-12-28T11:49:08;100508.59;;;8.13;100.00
62418;BME280;48456;54.242;10.280;2023-12-28T11:51:36;100289.06;;;7.90;100.00
62418;BME280;48456;54.242;10.280;2023-12-28T11:54:04;99882.81;;;13.69;100.00
62418;BME280;48456;54.242;10.280;2023-12-28T11:56:31;100200.94;;;11.14;100.00
62418;BME280;48456;54.242;10.280;2023-12-28T11:58:59;99911.66;;;14.36;100.00
62418;BME280;48456;54.242;10.280;2023-12-28T12:01:25;100190.81;;;16.30;100.00
62418;BME280;48456;54.242;10.280;2023-12-28T12:03:53;100351.91;;;15.17;100.00
62418;BME280;48456;54.242;10.280;2023-12-28T12:06:20;100083.59;;;15.70;100.00
62418;BME280;48456;54.242;10.280;2023-12-28T12:08:46;100159.38;;;17.69;100.00
62418;BME280;48456;54.242;10.280;2023-12-28T12:11:13;100195.97;;;17.46;100.00
62418;BME280;48456;54.242;10.280;2023-12-28T12:13:39;100172.44;;;17.75;100.00
62418;BME280;48456;54.242;10.280;2023-12-28T12:16:06;100194.22;;;18.08;100.00
62418;BME280;48456;54.242;10.280;2023-12-28T12:18:33;100484.69;;;17.94;100.00
62418;BME280;48456;54.242;10.280;2023-12-28T12:21:00;100180.97;;;17.64;100.00
62418;BME280;48456;54.242;10.280;2023-12-28T12:23:27;100158.00;;;18.95;100.00
62418;BME280;48456;54.242;10.280;2023-12-28T12:25:53;100120.84;;;18.33;100.00
62418;BME280;48456;54.242;10.280;2023-12-28T12:28:20;100091.81;;;18.23;100.00
62418;BME280;48456;54.242;10.280;2023-12-28T12:30:50;100141.91;;;19.14;100.00
62418;BME280;48456;54.242;10.280;2023-12-28T12:33:17;100110.63;;;18.41;100.00
62418;BME280;48456;54.242;10.280;2023-12-28T12:35:44;100125.25;;;18.34;100.00
62418;BME280;48456;54.242;10.280;2023-12-28T12:38:10;100095.28;;;17.87;100.00
62418;BME280;48456;54.242;10.280;2023-12-28T12:40:37;100093.00;;;17.58;100.00
62418;BME280;48456;54.242;10.280;2023-12-28T12:43:04;100080.81;;;17.91;100.00
62418;BME280;48456;54.242;10.280;2023-12-28T12:45:30;100072.06;;;17.68;100.00
62418;BME280;48456;54.242;10.280;2023-12-28T12:47:57;99942.31;;;12.37;100.00